Time;durP1;ratioP1;P1;durP2;ratioP2;P2;SDS_P1;SDS_P2;PMS_P1;PMS_P2;Temp;Humidity;BMP_temperature;BMP_pressure;BME280_temperature;BME280_humidity;BME280_pressure;Samples;Min_cycle;Max_cycle;Signal;HPM_P1;HPM_P2
2023/08/25 00:01:30;;;;;;;2.55;0.65;;;14.00;1.00;;;;;;5030855;28;20205;-73
2023/08/25 00:03:56;;;;;;;3.47;1.08;;;14.20;1.00;;;;;;5031130;28;20202;-74
2023/08/25 00:06:21;;;;;;;2.10;0.63;;;13.80;1.00;;;;;;5029998;28;20170;-74
2023/08/25 00:08:47;;;;;;;2.42;0.57;;;13.80;1.00;;;;;;5031077;28;20182;-73
2023/08/25 00:11:13;;;;;;;3.63;0.57;;;13.90;55.10;;;;;;5030694;28;20189;-73
2023/08/25 00:13:38;;;;;;;4.75;0.55;;;13.80;99.90;;;;;;5031025;28;20259;-73
2023/08/25 00:16:08;;;;;;;1.75;0.50;;;13.80;99.90;;;;;;5030858;28;20221;-73
2023/08/25 00:18:34;;;;;;;5.10;0.93;;;13.80;99.90;;;;;;5031191;28;20288;-73
2023/08/25 00:21:00;;;;;;;5.13;0.68;;;14.00;99.90;;;;;;5030769;28;20716;-73
2023/08/25 00:23:26;;;;;;;2.45;0.77;;;;;;;;;;5030763;28;20192;-73
2023/08/25 00:25:53;;;;;;;2.80;0.70;;;13.60;99.90;;;;;;5030951;28;20510;-73
2023/08/25 00:28:19;;;;;;;2.50;0.75;;;14.00;99.90;;;;;;5031048;28;20201;-73
2023/08/25 00:30:45;;;;;;;4.95;0.77;;;13.70;99.90;;;;;;5031055;28;20173;-73
2023/08/25 00:33:10;;;;;;;1.73;0.52;;;13.50;99.90;;;;;;5029608;28;20663;-73
2023/08/25 00:35:36;;;;;;;2.63;0.60;;;13.70;99.90;;;;;;5029451;28;20198;-72
2023/08/25 00:38:02;;;;;;;2.58;0.90;;;13.30;99.90;;;;;;5030623;28;20629;-73
2023/08/25 00:40:28;;;;;;;2.20;0.60;;;;;;;;;;5030668;28;20209;-73
2023/08/25 00:42:53;;;;;;;4.45;0.75;;;13.40;99.90;;;;;;5032940;28;20201;-73
2023/08/25 00:45:19;;;;;;;5.93;0.73;;;13.30;99.90;;;;;;5034652;28;20662;-73
2023/08/25 00:47:45;;;;;;;2.13;0.52;;;13.50;99.90;;;;;;5034506;28;20216;-72
2023/08/25 00:50:11;;;;;;;2.50;0.60;;;13.60;99.90;;;;;;5034679;28;20701;-72
2023/08/25 00:52:37;;;;;;;2.47;0.70;;;13.50;99.90;;;;;;5034375;28;20181;-73
2023/08/25 00:55:05;;;;;;;5.35;0.60;;;13.40;99.90;;;;;;5034595;28;20241;-73
2023/08/25 00:57:31;;;;;;;4.28;0.70;;;13.40;99.90;;;;;;5034322;28;20182;-72
2023/08/25 00:59:57;;;;;;;4.55;0.82;;;13.30;99.90;;;;;;5034557;28;20316;-71
2023/08/25 01:02:24;;;;;;;4.90;0.60;;;13.30;99.90;;;;;;5034371;28;20671;-72
2023/08/25 01:04:50;;;;;;;3.83;0.83;;;13.40;99.90;;;;;;5034503;28;20244;-73
2023/08/25 01:07:16;;;;;;;1.95;0.60;;;13.30;99.90;;;;;;5034743;28;20196;-72
2023/08/25 01:09:42;;;;;;;2.05;0.70;;;13.20;99.90;;;;;;5034525;28;20644;-72
2023/08/25 01:12:21;;;;;;;6.30;0.70;;;13.30;99.90;;;;;;5034546;28;20174;-72
2023/08/25 01:15:07;;;;;;;1.35;0.65;;;13.20;99.90;;;;;;5034399;28;20220;-72
2023/08/25 01:17:43;;;;;;;3.78;1.02;;;13.30;99.90;;;;;;5034112;28;20612;-71
2023/08/25 01:20:09;;;;;;;1.67;0.63;;;13.20;99.90;;;;;;5034329;28;20256;-72
2023/08/25 01:22:56;;;;;;;2.58;0.82;;;13.20;99.90;;;;;;5034260;28;20209;-72
2023/08/25 01:25:24;;;;;;;2.22;0.82;;;13.00;99.90;;;;;;5034282;28;20170;-72
2023/08/25 01:27:50;;;;;;;3.47;1.00;;;13.20;99.90;;;;;;5034172;28;20527;-72
2023/08/25 01:30:15;;;;;;;2.65;1.27;;;13.30;99.90;;;;;;5034033;28;20261;-72
2023/08/25 01:32:41;;;;;;;4.13;1.42;;;13.00;99.90;;;;;;5034121;28;20182;-72
2023/08/25 01:35:07;;;;;;;4.85;1.10;;;13.00;99.90;;;;;;5037330;28;20583;-72
2023/08/25 01:37:41;;;;;;;4.10;1.20;;;12.70;99.90;;;;;;5052645;28;20503;-71
2023/08/25 01:40:15;;;;;;;4.25;1.00;;;12.90;99.90;;;;;;5053617;28;20174;-72
2023/08/25 01:42:44;;;;;;;1.58;0.88;;;12.80;99.90;;;;;;5053630;28;20223;-72
2023/08/25 01:45:11;;;;;;;4.07;0.90;;;12.70;99.90;;;;;;5053749;28;20180;-72
2023/08/25 01:47:38;;;;;;;1.60;1.00;;;12.80;99.90;;;;;;5052226;28;20177;-72
2023/08/25 01:50:05;;;;;;;1.80;1.00;;;12.80;99.90;;;;;;5053740;28;20196;-72
2023/08/25 01:52:31;;;;;;;4.20;1.10;;;12.70;99.90;;;;;;5035403;28;20248;-72
2023/08/25 01:54:56;;;;;;;3.65;1.23;;;12.80;99.90;;;;;;5033553;28;20182;-72
2023/08/25 01:57:22;;;;;;;2.10;1.30;;;12.60;99.90;;;;;;5048806;28;20174;-72
2023/08/25 01:59:48;;;;;;;4.15;1.20;;;12.60;99.90;;;;;;5032248;28;20632;-72
2023/08/25 02:02:13;;;;;;;3.58;1.00;;;12.60;99.90;;;;;;5033434;28;20295;-72
2023/08/25 02:04:39;;;;;;;4.25;1.10;;;13.10;99.90;;;;;;5033599;28;20324;-72
2023/08/25 02:07:04;;;;;;;5.13;1.20;;;12.40;99.90;;;;;;5033473;28;20177;-72
2023/08/25 02:09:30;;;;;;;5.20;1.00;;;12.80;99.90;;;;;;5033313;28;20271;-72
2023/08/25 02:11:56;;;;;;;4.47;1.00;;;;;;;;;;5033396;28;20640;-72
2023/08/25 02:14:22;;;;;;;3.42;1.05;;;;;;;;;;5033177;28;20185;-73
2023/08/25 02:16:47;;;;;;;3.10;0.85;;;12.40;99.90;;;;;;5033187;28;20177;-73
2023/08/25 02:19:13;;;;;;;3.63;1.05;;;12.80;99.90;;;;;;5033161;28;20264;-72
2023/08/25 02:21:39;;;;;;;2.27;0.93;;;12.60;99.90;;;;;;5033098;28;20209;-72
2023/08/25 02:24:04;;;;;;;5.65;0.95;;;12.50;99.90;;;;;;5032890;28;20169;-73
2023/08/25 02:26:30;;;;;;;2.80;1.48;;;;;;;;;;5033264;28;20715;-72
2023/08/25 02:28:56;;;;;;;1.85;0.80;;;12.60;99.90;;;;;;5033160;28;20174;-72
2023/08/25 02:31:21;;;;;;;4.15;0.90;;;12.50;99.90;;;;;;5032914;28;20284;-71
2023/08/25 02:33:47;;;;;;;4.40;1.10;;;12.60;99.90;;;;;;5032736;28;20182;-71
2023/08/25 02:36:13;;;;;;;5.38;1.38;;;;;;;;;;5032881;28;20241;-71
2023/08/25 02:38:39;;;;;;;1.65;0.95;;;12.60;99.90;;;;;;5032736;28;20181;-71
2023/08/25 02:41:04;;;;;;;3.33;1.10;;;12.70;99.90;;;;;;5032610;28;20699;-72
2023/08/25 02:43:30;;;;;;;3.25;1.17;;;12.50;99.90;;;;;;5032764;28;20213;-71
2023/08/25 02:45:59;;;;;;;1.77;1.15;;;12.30;99.90;;;;;;5032472;28;20200;-73
2023/08/25 02:48:25;;;;;;;5.57;1.20;;;12.50;99.90;;;;;;5032743;28;20178;-72
2023/08/25 02:50:50;;;;;;;2.05;0.73;;;12.60;99.90;;;;;;5032580;28;20178;-72
2023/08/25 02:53:16;;;;;;;2.25;1.00;;;12.20;99.90;;;;;;5032458;28;20188;-72
2023/08/25 02:55:41;;;;;;;3.30;0.88;;;12.30;99.90;;;;;;5032419;28;20663;-72
2023/08/25 02:58:07;;;;;;;4.78;1.13;;;12.30;99.90;;;;;;5032473;28;20253;-72
2023/08/25 03:00:32;;;;;;;2.90;1.17;;;12.10;99.90;;;;;;5032635;28;20174;-72
2023/08/25 03:02:58;;;;;;;3.65;1.10;;;12.00;99.90;;;;;;5032301;28;20217;-72
2023/08/25 03:05:24;;;;;;;2.85;1.27;;;12.20;99.90;;;;;;5031855;28;20166;-72
2023/08/25 03:07:53;;;;;;;5.60;1.20;;;12.10;99.90;;;;;;5032145;28;20170;-73
2023/08/25 03:10:19;;;;;;;4.17;1.10;;;12.10;99.90;;;;;;5032231;28;20181;-72
2023/08/25 03:12:44;;;;;;;2.23;1.50;;;12.20;99.90;;;;;;5032236;28;20174;-72
2023/08/25 03:15:10;;;;;;;5.67;1.10;;;12.20;99.90;;;;;;5032205;28;20173;-72
2023/08/25 03:17:35;;;;;;;6.65;1.50;;;12.30;99.90;;;;;;5032040;28;20602;-72
2023/08/25 03:20:02;;;;;;;2.47;1.00;;;12.20;99.90;;;;;;5032092;28;20188;-72
2023/08/25 03:22:28;;;;;;;4.37;1.40;;;12.30;99.90;;;;;;5031834;28;20202;-72
2023/08/25 03:24:54;;;;;;;3.70;1.60;;;12.00;99.90;;;;;;5031898;28;20166;-75
2023/08/25 03:27:20;;;;;;;6.07;1.77;;;;;;;;;;5031890;28;20181;-72
2023/08/25 03:29:46;;;;;;;4.43;1.70;;;12.20;99.90;;;;;;5031906;28;20170;-72
2023/08/25 03:32:11;;;;;;;3.70;1.80;;;11.80;99.90;;;;;;5047254;28;20517;-74
2023/08/25 03:34:37;;;;;;;3.90;1.70;;;11.70;99.90;;;;;;5030603;28;20178;-74
2023/08/25 03:37:03;;;;;;;8.83;2.17;;;12.10;99.90;;;;;;5031550;28;20174;-74
2023/08/25 03:39:29;;;;;;;3.42;1.73;;;12.00;99.90;;;;;;5031785;28;20154;-73
2023/08/25 03:41:55;;;;;;;5.13;1.87;;;12.00;99.90;;;;;;5031468;28;20229;-73
2023/08/25 03:44:20;;;;;;;2.85;1.67;;;11.80;99.90;;;;;;5031718;28;20166;-74
2023/08/25 03:46:46;;;;;;;3.47;1.90;;;11.80;99.90;;;;;;5031447;28;20220;-73
2023/08/25 03:49:12;;;;;;;6.57;2.00;;;;;;;;;;5031557;28;20184;-73
2023/08/25 03:51:38;;;;;;;3.87;1.97;;;11.90;99.90;;;;;;5030672;28;20187;-73
2023/08/25 03:54:06;;;;;;;3.37;1.67;;;12.10;99.90;;;;;;5031324;28;20256;-73
2023/08/25 03:56:32;;;;;;;2.85;1.75;;;11.80;99.90;;;;;;5031484;28;20170;-72
2023/08/25 03:58:57;;;;;;;3.77;2.00;;;11.60;99.90;;;;;;5031470;28;20185;-72
2023/08/25 04:01:23;;;;;;;3.27;1.57;;;11.60;99.90;;;;;;5031316;28;20224;-72
2023/08/25 04:03:49;;;;;;;6.60;1.87;;;11.60;99.90;;;;;;5031449;28;20162;-72
2023/08/25 04:06:14;;;;;;;4.50;2.13;;;12.70;99.90;;;;;;5046819;28;20178;-72
2023/08/25 04:08:40;;;;;;;5.07;2.07;;;11.60;99.90;;;;;;5031140;28;20629;-72
2023/08/25 04:11:06;;;;;;;5.17;1.90;;;11.50;99.90;;;;;;5046586;28;20217;-73
2023/08/25 04:13:32;;;;;;;5.67;2.10;;;11.40;99.90;;;;;;5031251;28;20181;-72
2023/08/25 04:15:59;;;;;;;5.20;2.17;;;11.40;99.90;;;;;;5030974;28;20178;-72
2023/08/25 04:18:25;;;;;;;5.23;1.93;;;11.40;99.90;;;;;;5031113;28;20173;-72
2023/08/25 04:20:51;;;;;;;3.07;1.53;;;11.40;99.90;;;;;;5030939;28;20174;-72
2023/08/25 04:23:17;;;;;;;6.93;1.67;;;11.40;99.90;;;;;;5030945;28;20189;-72
2023/08/25 04:25:43;;;;;;;3.90;1.60;;;11.50;99.90;;;;;;5031074;28;20180;-72
2023/08/25 04:28:09;;;;;;;7.47;1.87;;;11.20;99.90;;;;;;5031159;28;20193;-73
2023/08/25 04:30:34;;;;;;;4.03;1.40;;;11.40;99.90;;;;;;5031041;28;20220;-72
2023/08/25 04:33:00;;;;;;;5.97;1.33;;;11.20;99.90;;;;;;5031134;28;20599;-72
2023/08/25 04:35:26;;;;;;;3.87;1.47;;;11.30;99.90;;;;;;5046030;28;20641;-72
2023/08/25 04:37:51;;;;;;;2.43;1.40;;;12.20;99.90;;;;;;5030948;28;20190;-72
2023/08/25 04:40:18;;;;;;;6.70;1.60;;;11.30;99.90;;;;;;5030820;28;20174;-72
2023/08/25 04:42:43;;;;;;;7.30;1.70;;;11.30;99.90;;;;;;5030809;28;20205;-72
2023/08/25 04:45:11;;;;;;;4.47;1.57;;;11.20;99.90;;;;;;5030873;28;20667;-73
2023/08/25 04:47:37;;;;;;;5.60;1.47;;;;;;;;;;5029489;28;20197;-72
2023/08/25 04:50:03;;;;;;;7.27;1.77;;;11.40;99.90;;;;;;5030674;28;20252;-73
2023/08/25 04:52:33;;;;;;;6.13;1.67;;;11.10;99.90;;;;;;5029278;28;20206;-73
2023/08/25 04:54:59;;;;;;;3.63;1.90;;;;;;;;;;5030846;28;20174;-73
2023/08/25 04:57:25;;;;;;;4.07;1.90;;;11.30;99.90;;;;;;5029577;28;20174;-73
2023/08/25 04:59:50;;;;;;;2.27;1.47;;;11.60;99.90;;;;;;5046216;28;20548;-73
2023/08/25 05:02:17;;;;;;;3.37;1.70;;;11.50;99.90;;;;;;5030717;28;20303;-73
2023/08/25 05:04:43;;;;;;;7.27;1.87;;;11.30;99.90;;;;;;5030821;28;20174;-74
2023/08/25 05:07:09;;;;;;;4.80;2.00;;;;;;;;;;5030796;28;20188;-73
2023/08/25 05:09:34;;;;;;;3.40;1.60;;;11.30;99.90;;;;;;5030758;28;20166;-73
2023/08/25 05:12:00;;;;;;;10.13;1.70;;;11.50;99.90;;;;;;5030816;28;20534;-76
2023/08/25 05:14:26;;;;;;;7.23;1.60;;;;;;;;;;5030656;28;20295;-72
2023/08/25 05:16:52;;;;;;;5.80;1.73;;;;;;;;;;5030434;28;20178;-72
2023/08/25 05:19:18;;;;;;;3.87;2.00;;;;;;;;;;5030649;28;20184;-72
2023/08/25 05:21:43;;;;;;;6.53;1.70;;;11.60;99.90;;;;;;5030477;28;20220;-72
2023/08/25 05:24:22;;;;;;;7.50;1.60;;;11.50;99.90;;;;;;5030641;28;20649;-72
2023/08/25 05:26:51;;;;;;;8.03;1.50;;;11.60;99.90;;;;;;5029340;28;20178;-72
2023/08/25 05:29:18;;;;;;;2.90;1.50;;;11.80;99.90;;;;;;5032823;28;20529;-72
2023/08/25 05:31:43;;;;;;;7.83;1.20;;;11.60;99.90;;;;;;5033515;28;20268;-72
2023/08/25 05:34:09;;;;;;;2.93;1.30;;;11.60;99.90;;;;;;5031110;28;20273;-72
2023/08/25 05:36:35;;;;;;;2.80;1.37;;;12.00;99.90;;;;;;5041338;28;20185;-72
2023/08/25 05:39:01;;;;;;;7.57;1.30;;;11.90;99.90;;;;;;5033177;28;20233;-72
2023/08/25 05:41:27;;;;;;;5.03;1.67;;;11.90;99.90;;;;;;5033645;28;20230;-72
2023/08/25 05:43:53;;;;;;;5.50;1.40;;;11.90;99.90;;;;;;5033508;28;20231;-72
2023/08/25 05:46:18;;;;;;;7.83;1.60;;;12.00;99.90;;;;;;5033396;28;20185;-72
2023/08/25 05:48:44;;;;;;;3.90;1.00;;;12.40;99.90;;;;;;5032598;28;20174;-72
2023/08/25 05:51:10;;;;;;;4.73;1.63;;;12.10;99.90;;;;;;5032330;28;20185;-72
2023/08/25 05:53:35;;;;;;;5.07;1.47;;;12.30;99.90;;;;;;5033780;28;20182;-72
2023/08/25 05:56:01;;;;;;;4.47;1.30;;;;;;;;;;5033720;28;20181;-72
2023/08/25 05:58:27;;;;;;;3.43;1.27;;;12.40;99.90;;;;;;5033383;28;20185;-72
2023/08/25 06:00:53;;;;;;;2.88;1.30;;;12.00;99.90;;;;;;5033421;28;20641;-72
2023/08/25 06:03:19;;;;;;;3.28;1.30;;;12.50;99.90;;;;;;5033472;28;20188;-71
2023/08/25 06:05:46;;;;;;;2.23;1.13;;;12.60;99.90;;;;;;5032212;28;20176;-71
2023/08/25 06:08:13;;;;;;;3.10;1.40;;;;;;;;;;5033333;28;20682;-72
2023/08/25 06:10:38;;;;;;;3.80;1.48;;;12.60;99.90;;;;;;5033473;28;20165;-71
2023/08/25 06:13:04;;;;;;;5.75;1.40;;;12.50;99.90;;;;;;5032062;28;20192;-72
2023/08/25 06:15:30;;;;;;;5.33;1.20;;;12.80;99.90;;;;;;5033063;28;20170;-72
2023/08/25 06:17:56;;;;;;;7.63;1.43;;;12.80;99.90;;;;;;5033175;28;20178;-72
2023/08/25 06:20:21;;;;;;;3.88;1.63;;;12.90;99.90;;;;;;5031819;28;20184;-74
2023/08/25 06:22:47;;;;;;;5.32;1.67;;;12.80;99.90;;;;;;5033121;28;20296;-72
2023/08/25 06:25:13;;;;;;;3.92;1.25;;;13.10;99.90;;;;;;5032996;28;20198;-72
2023/08/25 06:27:38;;;;;;;7.18;1.50;;;12.90;99.90;;;;;;5033090;28;20249;-72
2023/08/25 06:30:05;;;;;;;4.82;1.70;;;13.30;99.90;;;;;;5032923;28;20174;-72
2023/08/25 06:32:30;;;;;;;9.57;1.77;;;13.10;99.90;;;;;;5031572;28;20213;-72
2023/08/25 06:34:56;;;;;;;5.57;1.52;;;13.10;99.90;;;;;;5032934;28;20209;-73
2023/08/25 06:37:22;;;;;;;9.25;1.70;;;13.10;99.90;;;;;;5032885;28;20178;-74
2023/08/25 06:39:47;;;;;;;7.38;1.77;;;12.70;99.90;;;;;;5031729;28;20190;-73
2023/08/25 06:42:13;;;;;;;5.68;2.10;;;13.10;99.90;;;;;;5032416;28;20217;-74
2023/08/25 06:44:40;;;;;;;8.55;1.50;;;13.10;99.90;;;;;;5032339;28;20637;-73
2023/08/25 06:47:06;;;;;;;8.98;1.75;;;13.00;99.90;;;;;;5032539;28;20181;-73
2023/08/25 06:49:32;;;;;;;5.80;1.50;;;13.30;99.90;;;;;;5010809;28;20167;-73
2023/08/25 06:51:57;;;;;;;8.57;1.90;;;13.40;99.90;;;;;;5030410;28;20236;-73
2023/08/25 06:54:24;;;;;;;4.93;1.63;;;13.30;99.90;;;;;;5031011;28;20245;-73
2023/08/25 06:56:50;;;;;;;6.82;1.65;;;13.40;99.90;;;;;;5031802;28;20201;-73
2023/08/25 06:59:16;;;;;;;3.80;1.40;;;13.50;99.90;;;;;;5030705;28;20178;-73
2023/08/25 07:01:42;;;;;;;6.97;1.77;;;13.50;99.90;;;;;;5032207;28;20300;-73
2023/08/25 07:04:07;;;;;;;16.13;1.52;;;13.50;99.90;;;;;;5032501;28;20259;-74
2023/08/25 07:06:33;;;;;;;10.27;1.75;;;13.80;99.90;;;;;;5032088;28;20174;-73
2023/08/25 07:08:59;;;;;;;8.27;1.48;;;13.80;99.90;;;;;;5032183;28;20184;-73
2023/08/25 07:11:26;;;;;;;4.45;1.42;;;14.00;99.90;;;;;;5030180;28;20178;-73
2023/08/25 07:13:52;;;;;;;1.80;1.33;;;14.20;99.90;;;;;;5031958;28;20228;-73
2023/08/25 07:16:17;;;;;;;6.45;1.38;;;14.10;99.90;;;;;;5031736;28;20580;-74
2023/08/25 07:18:43;;;;;;;5.60;1.42;;;14.20;99.90;;;;;;5032337;28;20166;-73
2023/08/25 07:21:11;;;;;;;4.38;2.08;;;14.30;99.90;;;;;;5030021;28;20656;-75
2023/08/25 07:23:37;;;;;;;4.22;1.30;;;14.60;99.90;;;;;;5031189;28;20178;-75
2023/08/25 07:26:03;;;;;;;4.35;1.50;;;14.90;99.90;;;;;;5030611;28;20200;-74
2023/08/25 07:28:29;;;;;;;3.35;1.60;;;14.70;99.90;;;;;;5019411;28;20175;-74
2023/08/25 07:30:56;;;;;;;8.30;1.70;;;14.80;99.90;;;;;;5031704;28;20178;-74
2023/08/25 07:33:23;;;;;;;5.68;1.50;;;14.80;99.90;;;;;;5031709;28;20231;-74
2023/08/25 07:35:48;;;;;;;8.45;1.65;;;14.90;99.90;;;;;;5031664;28;20181;-74
2023/08/25 07:38:14;;;;;;;6.72;1.48;;;15.00;99.90;;;;;;5031484;28;20178;-74
2023/08/25 07:40:41;;;;;;;8.32;1.67;;;15.20;99.90;;;;;;5030145;28;20304;-73
2023/08/25 07:43:06;;;;;;;5.75;1.40;;;15.30;99.90;;;;;;5031511;28;20202;-74
2023/08/25 07:45:33;;;;;;;6.10;1.35;;;15.40;99.90;;;;;;5030861;28;20264;-74
2023/08/25 07:48:01;;;;;;;8.05;1.50;;;15.50;99.90;;;;;;5031653;28;20181;-74
2023/08/25 07:50:31;;;;;;;3.55;1.08;;;15.60;99.90;;;;;;5031507;28;20170;-73
2023/08/25 07:52:57;;;;;;;9.60;1.80;;;15.70;99.90;;;;;;5031331;28;20232;-74
2023/08/25 07:55:24;;;;;;;4.80;1.50;;;16.00;99.90;;;;;;5031366;28;20162;-74
2023/08/25 07:57:50;;;;;;;7.03;1.98;;;16.20;99.90;;;;;;5031407;28;20178;-73
2023/08/25 08:00:17;;;;;;;6.18;2.38;;;16.40;99.90;;;;;;5031352;28;20170;-74
2023/08/25 08:02:47;;;;;;;8.50;2.42;;;16.50;99.90;;;;;;5029964;28;20300;-74
2023/08/25 08:05:15;;;;;;;8.35;2.45;;;16.60;99.90;;;;;;5031364;28;20220;-74
2023/08/25 08:07:44;;;;;;;6.18;2.28;;;16.70;99.90;;;;;;5031293;28;20851;-74
2023/08/25 08:10:10;;;;;;;5.07;2.40;;;17.00;99.90;;;;;;5031251;28;20236;-73
2023/08/25 08:12:37;;;;;;;6.90;2.60;;;16.80;99.90;;;;;;5031404;28;20272;-74
2023/08/25 08:15:04;;;;;;;4.57;1.88;;;16.90;99.90;;;;;;5031176;28;20679;-73
2023/08/25 08:17:30;;;;;;;12.52;1.95;;;16.90;99.90;;;;;;5030630;28;20170;-73
2023/08/25 08:19:56;;;;;;;7.45;1.77;;;16.90;99.90;;;;;;5031125;28;20181;-72
2023/08/25 08:22:21;;;;;;;5.82;1.60;;;17.00;99.90;;;;;;5030695;28;20575;-73
2023/08/25 08:24:50;;;;;;;3.08;1.25;;;17.30;99.90;;;;;;5029321;28;20182;-72
2023/08/25 08:27:17;;;;;;;5.53;1.88;;;17.50;14.60;;;;;;5031045;28;20174;-73
2023/08/25 08:29:44;;;;;;;7.13;1.58;;;18.00;1.00;;;;;;5030430;28;20185;-73
2023/08/25 08:32:10;;;;;;;7.40;1.90;;;19.10;1.00;;;;;;5030942;28;20272;-74
2023/08/25 08:34:36;;;;;;;5.05;1.60;;;19.70;99.90;;;;;;5030919;28;20243;-73
2023/08/25 08:37:05;;;;;;;8.25;1.30;;;19.80;99.90;;;;;;5030744;28;20181;-74
2023/08/25 08:39:34;;;;;;;4.47;1.27;;;20.40;1.00;;;;;;5029849;28;20389;-74
2023/08/25 08:42:03;;;;;;;5.90;1.60;;;21.30;99.90;;;;;;5030513;28;20229;-74
2023/08/25 08:44:35;;;;;;;4.43;1.25;;;21.60;1.00;;;;;;5029883;28;20174;-74
2023/08/25 08:47:03;;;;;;;4.15;1.13;;;22.10;1.00;;;;;;5030022;28;20177;-74
2023/08/25 08:49:30;;;;;;;7.13;1.20;;;22.20;1.00;;;;;;5030543;28;20170;-74
2023/08/25 08:51:58;;;;;;;6.40;1.10;;;21.40;1.00;;;;;;5027157;28;20166;-74
2023/08/25 08:54:27;;;;;;;6.05;1.30;;;21.60;1.00;;;;;;5010842;28;20177;-75
2023/08/25 08:56:54;;;;;;;3.00;1.33;;;21.10;1.00;;;;;;5022414;28;20640;-75
2023/08/25 08:59:20;;;;;;;3.83;1.50;;;21.10;1.00;;;;;;5029651;28;20378;-75
2023/08/25 09:01:48;;;;;;;3.55;1.30;;;21.10;1.00;;;;;;5029976;28;20676;-74
2023/08/25 09:04:15;;;;;;;5.13;1.42;;;21.00;99.90;;;;;;5032782;28;20178;-74
2023/08/25 09:06:43;;;;;;;4.50;1.23;;;20.90;99.90;;;;;;5033808;28;20209;-74
2023/08/25 09:09:09;;;;;;;8.35;1.63;;;20.40;99.90;;;;;;5033689;28;20657;-74
2023/08/25 09:11:35;;;;;;;5.32;1.67;;;20.20;99.90;;;;;;5034169;28;20185;-75
2023/08/25 09:14:04;;;;;;;7.32;1.70;;;20.10;1.00;;;;;;5033987;28;20251;-74
2023/08/25 09:16:34;;;;;;;4.80;1.60;;;20.90;99.90;;;;;;5034235;28;20231;-74
2023/08/25 09:19:02;;;;;;;4.97;1.15;;;21.30;1.00;;;;;;5032752;28;20181;-73
2023/08/25 09:21:28;;;;;;;10.23;1.73;;;21.10;1.00;;;;;;5033740;28;20237;-74
2023/08/25 09:24:03;;;;;;;6.57;1.20;;;21.10;1.00;;;;;;5033327;28;20178;-73
2023/08/25 09:26:38;;;;;;;6.18;1.33;;;20.70;99.90;;;;;;5033324;28;20177;-73
2023/08/25 09:29:04;;;;;;;2.65;1.05;;;20.50;1.00;;;;;;5033954;28;20192;-73
2023/08/25 09:31:31;;;;;;;3.15;1.10;;;20.10;1.00;;;;;;5031786;28;20620;-74
2023/08/25 09:34:03;;;;;;;4.05;1.13;;;19.50;1.00;;;;;;5033496;28;20182;-73
2023/08/25 09:36:29;;;;;;;7.65;1.17;;;19.40;19.00;;;;;;5030788;28;20177;-73
2023/08/25 09:38:55;;;;;;;4.53;1.40;;;19.20;1.00;;;;;;5033663;28;20178;-73
2023/08/25 09:41:25;;;;;;;2.60;1.10;;;19.50;1.00;;;;;;5033297;28;20218;-73
2023/08/25 09:43:59;;;;;;;3.95;1.30;;;19.90;99.90;;;;;;5033650;28;20240;-73
2023/08/25 09:46:32;;;;;;;2.88;1.10;;;20.10;1.00;;;;;;5033529;28;20169;-73
2023/08/25 09:49:02;;;;;;;8.80;1.23;;;19.80;1.00;;;;;;5033561;28;20208;-73
2023/08/25 09:51:45;;;;;;;3.58;1.40;;;19.60;1.00;;;;;;5033680;28;20209;-73
2023/08/25 09:54:12;;;;;;;5.82;1.30;;;19.30;1.00;;;;;;5033508;28;20170;-73
2023/08/25 09:56:40;;;;;;;5.82;1.10;;;19.10;1.00;;;;;;5033563;28;20194;-73
2023/08/25 09:59:07;;;;;;;4.93;0.98;;;19.00;1.00;;;;;;5032446;28;20519;-71
2023/08/25 10:01:34;;;;;;;6.03;1.20;;;20.10;99.90;;;;;;5033422;28;20212;-72
2023/08/25 10:04:03;;;;;;;3.55;0.88;;;19.00;1.00;;;;;;5032400;28;20177;-72
2023/08/25 10:06:32;;;;;;;5.38;1.02;;;18.90;1.00;;;;;;5031455;28;20180;-73
2023/08/25 10:08:59;;;;;;;6.78;1.00;;;19.10;1.00;;;;;;5030929;28;20181;-72
2023/08/25 10:11:30;;;;;;;4.80;1.15;;;19.20;1.00;;;;;;5031625;28;20174;-73
2023/08/25 10:13:59;;;;;;;4.30;1.05;;;19.00;1.00;;;;;;5031275;28;20174;-73
2023/08/25 10:16:27;;;;;;;3.80;1.05;;;18.90;1.00;;;;;;5030860;28;20170;-72
2023/08/25 10:18:56;;;;;;;7.10;1.15;;;18.60;1.00;;;;;;5031852;28;20175;-72
2023/08/25 10:21:23;;;;;;;4.65;1.10;;;18.40;99.90;;;;;;5032767;28;20218;-73
2023/08/25 10:23:52;;;;;;;4.93;1.10;;;18.40;99.90;;;;;;5033160;28;20180;-73
2023/08/25 10:26:18;;;;;;;4.05;1.15;;;18.60;99.90;;;;;;5032692;28;20244;-73
2023/08/25 10:28:45;;;;;;;6.13;1.75;;;18.60;1.00;;;;;;5031391;28;20224;-73
2023/08/25 10:31:12;;;;;;;4.22;1.38;;;18.80;1.00;;;;;;5032882;28;20166;-72
2023/08/25 10:33:52;;;;;;;6.18;1.45;;;19.30;99.90;;;;;;5032541;28;20201;-72
2023/08/25 10:36:20;;;;;;;3.28;1.20;;;19.30;87.00;;;;;;5032261;28;20174;-72
2023/08/25 10:38:54;;;;;;;3.75;1.23;;;19.30;1.00;;;;;;5032484;28;20201;-72
2023/08/25 10:41:21;;;;;;;5.65;1.00;;;19.20;1.00;;;;;;5032482;28;20307;-73
2023/08/25 10:43:54;;;;;;;5.35;0.90;;;19.60;1.00;;;;;;5032211;28;20644;-73
2023/08/25 10:46:22;;;;;;;3.55;1.08;;;20.30;1.00;;;;;;5031926;28;20185;-72
2023/08/25 10:48:51;;;;;;;2.95;1.35;;;20.40;99.90;;;;;;5030678;28;20177;-73
2023/08/25 10:51:19;;;;;;;5.07;1.20;;;20.40;99.90;;;;;;5031202;28;20166;-72
2023/08/25 10:53:52;;;;;;;2.75;1.10;;;20.40;1.00;;;;;;5032166;28;20177;-72
2023/08/25 10:56:18;;;;;;;5.55;1.10;;;20.30;1.00;;;;;;5032357;28;20310;-73
2023/08/25 10:59:03;;;;;;;5.32;1.73;;;20.10;1.00;;;;;;5032271;28;20178;-73
2023/08/25 11:01:38;;;;;;;2.05;0.88;;;20.10;1.00;;;;;;5032307;28;20205;-72
2023/08/25 11:04:12;;;;;;;4.00;1.10;;;20.10;52.00;;;;;;5032257;28;20264;-73
2023/08/25 11:06:39;;;;;;;3.33;0.88;;;20.10;24.00;;;;;;5032004;28;20226;-72
2023/08/25 11:09:05;;;;;;;5.18;1.00;;;20.20;1.00;;;;;;5031823;28;20336;-73
2023/08/25 11:11:34;;;;;;;5.78;1.05;;;19.80;1.00;;;;;;5031723;28;20162;-73
2023/08/25 11:14:00;;;;;;;5.32;1.08;;;19.80;45.90;;;;;;5032161;28;20170;-73
2023/08/25 11:16:26;;;;;;;3.75;1.00;;;19.70;99.90;;;;;;5031821;28;20529;-73
2023/08/25 11:18:52;;;;;;;6.72;1.13;;;19.70;99.90;;;;;;5026790;28;20234;-75
2023/08/25 11:21:26;;;;;;;2.65;1.02;;;19.20;1.00;;;;;;5012296;28;20249;-72
2023/08/25 11:23:52;;;;;;;5.80;1.33;;;19.00;1.00;;;;;;5022182;28;20174;-72
2023/08/25 11:26:18;;;;;;;2.53;1.00;;;18.60;1.00;;;;;;5029645;28;20181;-72
2023/08/25 11:28:50;;;;;;;0.98;0.52;;;17.70;99.90;;;;;;5031893;28;20249;-72
2023/08/25 11:31:19;;;;;;;1.08;0.57;;;17.00;57.30;;;;;;5031889;28;20177;-72
2023/08/25 11:33:45;;;;;;;3.28;0.63;;;16.80;36.40;;;;;;5020371;28;20178;-72
2023/08/25 11:36:15;;;;;;;0.55;0.30;;;16.60;99.90;;;;;;5026210;28;20193;-71
2023/08/25 11:38:41;;;;;;;3.15;0.88;;;16.70;99.90;;;;;;5031218;28;20252;-71
2023/08/25 11:41:09;;;;;;;3.40;0.77;;;16.60;99.90;;;;;;5031034;28;20236;-72
2023/08/25 11:43:36;;;;;;;5.28;0.88;;;17.10;99.90;;;;;;5031505;28;20260;-72
2023/08/25 11:46:05;;;;;;;1.65;0.55;;;17.50;99.90;;;;;;5015301;28;20249;-71
2023/08/25 11:48:32;;;;;;;1.90;0.50;;;17.70;99.90;;;;;;5029632;28;20663;-73
2023/08/25 11:50:58;;;;;;;3.05;0.70;;;17.90;99.90;;;;;;5030840;28;20174;-72
2023/08/25 11:53:24;;;;;;;0.80;0.40;;;18.00;99.90;;;;;;5031284;28;20181;-72
2023/08/25 11:56:04;;;;;;;2.50;0.57;;;18.10;44.60;;;;;;5031122;28;20633;-72
2023/08/25 11:58:34;;;;;;;2.08;0.70;;;18.40;99.90;;;;;;5031335;28;20174;-73
2023/08/25 12:01:00;;;;;;;2.40;0.57;;;18.60;1.00;;;;;;5046403;28;20178;-73
2023/08/25 12:03:26;;;;;;;2.03;0.52;;;18.80;1.00;;;;;;5031196;28;20201;-74
2023/08/25 12:05:51;;;;;;;4.50;0.90;;;19.10;1.00;;;;;;5012149;28;20678;-73
2023/08/25 12:08:17;;;;;;;1.92;0.40;;;18.80;99.90;;;;;;5030358;28;20190;-73
2023/08/25 12:10:43;;;;;;;2.00;0.80;;;18.60;99.90;;;;;;5030996;28;20185;-73
2023/08/25 12:13:09;;;;;;;1.35;0.60;;;18.50;99.90;;;;;;5031077;28;20196;-73
2023/08/25 12:15:44;;;;;;;2.95;0.50;;;18.40;99.90;;;;;;5030866;28;20168;-72
2023/08/25 12:18:12;;;;;;;2.20;0.60;;;18.40;1.00;;;;;;5030092;28;20660;-72
2023/08/25 12:20:42;;;;;;;3.80;0.70;;;18.30;1.00;;;;;;5031150;28;20221;-71
2023/08/25 12:23:08;;;;;;;4.35;0.73;;;18.40;1.00;;;;;;5030553;28;20217;-72
2023/08/25 12:25:35;;;;;;;1.35;0.55;;;18.60;1.00;;;;;;5029680;28;20177;-71
2023/08/25 12:28:01;;;;;;;3.17;0.90;;;18.90;1.00;;;;;;5030164;28;20178;-73
2023/08/25 12:30:28;;;;;;;1.98;0.50;;;19.50;99.90;;;;;;5030703;28;20172;-73
2023/08/25 12:32:54;;;;;;;1.90;0.50;;;19.90;99.90;;;;;;5028237;28;20184;-72
2023/08/25 12:35:22;;;;;;;4.18;0.88;;;20.30;1.00;;;;;;5029640;28;20540;-75
2023/08/25 12:37:48;;;;;;;4.07;0.90;;;20.80;1.00;;;;;;5029828;28;20307;-73
2023/08/25 12:40:14;;;;;;;3.45;1.65;;;20.40;1.00;;;;;;5033573;28;20180;-73
2023/08/25 12:42:39;;;;;;;5.20;0.73;;;20.10;1.00;;;;;;5034953;28;20684;-74
2023/08/25 12:45:06;;;;;;;7.20;1.05;;;19.90;1.00;;;;;;5034258;28;20223;-73
2023/08/25 12:47:31;;;;;;;1.95;0.70;;;19.80;1.00;;;;;;5034114;28;20177;-74
2023/08/25 12:49:57;;;;;;;3.70;0.70;;;20.10;1.00;;;;;;5033068;28;20253;-74
2023/08/25 12:52:23;;;;;;;3.47;1.00;;;20.80;1.00;;;;;;5034430;28;20189;-74